La Sarnosa, Argentina
Current Conditions -  °F | °C
As of 2:00 AM on Tuesday 21 Oct 2014 (Local Time) from SARE Reporting Station
Clear Clear  
Wind Chill: 66°   Ceiling: Unl
Heat Index: 66°   Visibility: 6mi
Dew Point: 57°   Wind: 5mph
Humidity: 73%   Direction: 90°E
Pressure: 30.03"   Gusts: NA
Location:  29.23°S, 60.42°W
Report Text: SARE 210500Z 09004KT CAVOK 19/14 Q1017
Loading
Personal Weather Stations






























Interactive Weather Map New forecast layout! Learn more

10-Day Weather Forecast

Advertisements
Track Severe Weather on mobile